Accueil
METAR-TAF:

METAR-TAF

Aéroports :

Aéroport international de Genève

Genève, Suisse

latitude: 46-15N, longitude: 006-08E, altitude: 420 m

Observation

Le bulletin a été fait il y a 22 minutes, à 19:50 UTC
Vent 8 kt de nord/nord-est
Température 6°C
Humidité 36%
Pression 1020 hPa
Visibilité 10 km ou plus
pas de nuages en-dessous de 1500 mètres et pas de cumulonimbus.

METAR: LSGG 311950Z 03008KT CAVOK 06/M08 Q1020 NOSIG

Heure: 22:12 (20:12 UTC)

Prévision

Le bulletin a été fait il y a 2 heures et 47 minutes, à 17:25 UTC
Prévision valable du 31 à 18 UTC au 01 à 24 UTC
Vent 13 kt de nord-est
Visibilité 10 km ou plus
pas de nuages en-dessous de 1500 mètres et pas de cumulonimbus.
Evoluant progressivement
du 31 à 21 UTC au 31 à 23 UTC
Vent 3 kt de nord-est

TAF: LSGG 311725Z 3118/0124 04013KT CAVOK TX12/0115Z TNM02/0105Z BECMG 3121/3123 04003KT

Observations et prévisions météorologiques de plus de 4000 aéroports (messages METAR et TAF).

Les stations disponibles sont représentées par des disques jaunes et rouges sur la carte.

Passer la souris dessus pour voir le nom de la station.

Cliquer dessus pour voir les observations et prévisions météorologiques.

Pour changer de carte: cliquez sur les boutons verts avec une croix noire pour zoomer, sur le bouton vert avec un tiret pour effectuer un zoom arrière, ou sur les flèches vertes pour les cartes adjacentes.


METAR-TAF: